Time;durP1;ratioP1;P1;durP2;ratioP2;P2;SDS_P1;SDS_P2;PMS_P1;PMS_P2;Temp;Humidity;BMP_temperature;BMP_pressure;BME280_temperature;BME280_humidity;BME280_pressure;Samples;Min_cycle;Max_cycle;Signal;HPM_P1;HPM_P2
2022/09/23 00:00:58;;;;;;;14.17;7.57;;;;;;;6.29;100.00;100341.66;4190926;28;21578;-82
2022/09/23 00:03:27;;;;;;;14.93;8.13;;;;;;;6.30;100.00;100338.91;4179346;28;20270;-75
2022/09/23 00:05:58;;;;;;;13.77;7.80;;;;;;;6.30;100.00;100338.91;4191359;28;20297;-76
2022/09/23 00:08:25;;;;;;;19.57;7.70;;;;;;;6.22;100.00;100330.72;4195308;28;21836;-77
2022/09/23 00:10:51;;;;;;;13.20;7.47;;;;;;;6.25;100.00;100333.16;4187685;28;20607;-78
2022/09/23 00:13:17;;;;;;;13.70;7.13;;;;;;;6.23;100.00;100331.59;4191500;28;20293;-76
2022/09/23 00:15:45;;;;;;;16.20;7.17;;;;;;;6.26;100.00;100331.34;4186675;28;20231;-77
2022/09/23 00:18:12;;;;;;;13.97;7.03;;;;;;;6.19;100.00;100330.97;4195326;28;21545;-79
2022/09/23 00:20:39;;;;;;;12.07;7.03;;;;;;;6.23;100.00;100335.06;4206179;28;20228;-77
2022/09/23 00:23:05;;;;;;;11.90;6.60;;;;;;;6.18;100.00;100333.72;4196779;28;23837;-77
2022/09/23 00:25:32;;;;;;;12.73;7.37;;;;;;;6.15;100.00;100334.81;4190312;28;20248;-74
2022/09/23 00:27:59;;;;;;;13.90;7.50;;;;;;;6.14;100.00;100333.16;4191631;28;20229;-76
2022/09/23 00:30:26;;;;;;;13.60;7.17;;;;;;;6.19;100.00;100330.16;4183112;28;21240;-74
2022/09/23 00:32:52;;;;;;;13.87;7.43;;;;;;;6.09;100.00;100332.66;4196699;28;20238;-76
2022/09/23 00:35:19;;;;;;;14.97;7.47;;;;;;;6.06;100.00;100325.81;4192636;28;20240;-74
2022/09/23 00:37:45;;;;;;;15.97;7.83;;;;;;;6.01;100.00;100332.41;4201375;28;20243;-75
2022/09/23 00:40:12;;;;;;;17.20;9.20;;;;;;;5.93;100.00;100332.97;4183578;28;20240;-76
2022/09/23 00:42:50;;;;;;;14.10;8.90;;;;;;;5.91;100.00;100334.88;4190859;28;20234;-77
2022/09/23 00:45:18;;;;;;;17.43;8.40;;;;;;;5.89;100.00;100326.22;4183865;28;20297;-76
2022/09/23 00:47:54;;;;;;;16.80;8.53;;;;;;;5.80;100.00;100325.13;4187609;28;20233;-73
2022/09/23 00:50:26;;;;;;;16.20;9.10;;;;;;;5.80;100.00;100324.28;4178572;28;20269;-75
2022/09/23 00:52:55;;;;;;;14.17;8.50;;;;;;;5.81;100.00;100329.47;4186939;28;20287;-77
2022/09/23 00:55:26;;;;;;;15.57;8.60;;;;;;;5.78;100.00;100327.03;4186732;28;20244;-75
2022/09/23 00:57:55;;;;;;;14.07;8.17;;;;;;;5.85;100.00;100328.28;4189906;28;20455;-78
2022/09/23 01:00:22;;;;;;;13.97;8.90;;;;;;;5.85;100.00;100325.66;4179134;28;20837;-79
2022/09/23 01:02:49;;;;;;;15.50;7.93;;;;;;;5.84;100.00;100326.59;4192686;28;20654;-78
2022/09/23 01:05:17;;;;;;;18.67;8.70;;;;;;;5.87;100.00;100328.16;4184053;28;20249;-80
2022/09/23 01:07:44;;;;;;;16.43;8.07;;;;;;;5.90;100.00;100326.13;4174231;28;22144;-81
2022/09/23 01:10:13;;;;;;;13.10;7.87;;;;;;;5.91;100.00;100326.97;4195146;28;21762;-78
2022/09/23 01:13:09;;;;;;;19.67;8.27;;;;;;;5.87;100.00;100323.69;4195181;28;22317;-76
2022/09/23 01:15:47;;;;;;;14.63;8.60;;;;;;;5.83;100.00;100314.34;4205206;28;20240;-79
2022/09/23 01:18:42;;;;;;;13.33;8.07;;;;;;;5.86;100.00;100318.56;4178392;28;21768;-76
2022/09/23 01:21:21;;;;;;;15.30;9.17;;;;;;;5.89;100.00;100318.31;4190688;28;22104;-79
2022/09/23 01:24:01;;;;;;;18.03;9.13;;;;;;;5.93;100.00;100319.75;4184687;28;21212;-78
2022/09/23 01:26:53;;;;;;;20.87;10.03;;;;;;;5.91;100.00;100322.50;4194134;28;22012;-77
2022/09/23 01:29:28;;;;;;;15.53;10.10;;;;;;;5.92;100.00;100318.06;4188563;28;20234;-76
2022/09/23 01:32:18;;;;;;;20.10;11.00;;;;;;;5.86;100.00;100319.38;4191968;28;20633;-76
2022/09/23 01:34:49;;;;;;;17.77;10.90;;;;;;;5.89;100.00;100316.50;4203436;28;20582;-77
2022/09/23 01:37:37;;;;;;;20.33;10.00;;;;;;;5.95;100.00;100322.28;4189774;28;22112;-77
2022/09/23 01:40:14;;;;;;;16.83;10.80;;;;;;;6.00;100.00;100315.72;4202544;28;20281;-77
2022/09/23 01:42:41;;;;;;;18.00;10.20;;;;;;;6.03;100.00;100318.13;4188435;28;20303;-75
2022/09/23 01:45:19;;;;;;;17.63;10.20;;;;;;;6.05;100.00;100310.91;4192289;28;20368;-78
2022/09/23 01:48:03;;;;;;;17.93;10.70;;;;;;;6.09;100.00;100308.91;4178461;28;20233;-75
2022/09/23 01:53:48;;;;;;;19.23;11.70;;;;;;;6.11;100.00;100317.50;4202012;28;20378;-78
2022/09/23 01:56:30;;;;;;;23.90;10.83;;;;;;;6.09;100.00;100315.00;4196205;28;20240;-77
2022/09/23 01:59:03;;;;;;;18.50;10.00;;;;;;;6.17;100.00;100317.03;4214616;28;20564;-78
2022/09/23 02:01:38;;;;;;;15.50;9.60;;;;;;;6.18;100.00;100313.47;4187552;28;20233;-79
2022/09/23 02:04:12;;;;;;;18.97;10.73;;;;;;;6.13;100.00;100310.31;4186059;28;20244;-76
2022/09/23 02:06:42;;;;;;;15.47;9.73;;;;;;;6.07;100.00;100311.63;4178055;28;20456;-78
2022/09/23 02:09:11;;;;;;;16.97;10.03;;;;;;;5.99;100.00;100321.09;4178035;28;20585;-76
2022/09/23 02:11:41;;;;;;;20.90;10.60;;;;;;;5.80;100.00;100309.28;4193568;28;20233;-77
2022/09/23 02:14:17;;;;;;;17.30;10.03;;;;;;;5.76;100.00;100310.50;4186154;28;20865;-76
2022/09/23 02:16:47;;;;;;;19.97;10.23;;;;;;;5.76;100.00;100312.28;4191809;28;23167;-78
2022/09/23 02:19:27;;;;;;;17.97;10.03;;;;;;;5.65;100.00;100311.31;4184011;28;20237;-76
2022/09/23 02:22:05;;;;;;;22.77;10.50;;;;;;;5.58;100.00;100314.53;4184263;28;20386;-75
2022/09/23 02:24:33;;;;;;;19.33;10.63;;;;;;;5.57;100.00;100312.84;4180931;28;23508;-76
2022/09/23 02:27:18;;;;;;;19.43;10.77;;;;;;;5.55;100.00;100314.75;4166700;28;20251;-76
2022/09/23 02:29:54;;;;;;;20.77;11.50;;;;;;;5.54;100.00;100318.34;4169777;28;20242;-77
2022/09/23 02:32:53;;;;;;;18.27;10.30;;;;;;;5.55;100.00;100320.03;4178318;28;23849;-80
2022/09/23 02:35:28;;;;;;;15.63;9.57;;;;;;;5.55;100.00;100309.47;4174944;28;20240;-76
2022/09/23 02:38:33;;;;;;;16.63;9.93;;;;;;;5.49;100.00;100308.97;4167967;28;21978;-79
2022/09/23 02:41:13;;;;;;;16.90;9.77;;;;;;;5.52;100.00;100312.34;4181854;28;20246;-78
2022/09/23 02:43:58;;;;;;;16.80;9.80;;;;;;;5.50;100.00;100312.44;4185626;28;20248;-77
2022/09/23 02:46:25;;;;;;;19.17;10.80;;;;;;;5.51;100.00;100314.16;4164990;28;22443;-76
2022/09/23 02:48:55;;;;;;;18.07;10.87;;;;;;;5.57;100.00;100315.47;4164582;28;20444;-78
2022/09/23 02:51:24;;;;;;;16.17;9.83;;;;;;;5.59;100.00;100318.84;4187403;28;20235;-76
2022/09/23 02:53:55;;;;;;;17.17;10.37;;;;;;;5.61;100.00;100312.47;4178833;28;20229;-77
2022/09/23 02:56:22;;;;;;;19.47;9.87;;;;;;;5.64;100.00;100319.31;4178011;28;20239;-76
2022/09/23 02:58:51;;;;;;;19.13;11.07;;;;;;;5.59;100.00;100313.56;4181537;28;20229;-78
2022/09/23 03:01:38;;;;;;;15.03;9.90;;;;;;;5.64;100.00;100309.63;4173472;28;20229;-76
2022/09/23 03:04:16;;;;;;;22.57;11.20;;;;;;;5.68;100.00;100315.50;4188700;28;22354;-77
2022/09/23 03:07:05;;;;;;;18.10;11.47;;;;;;;5.67;100.00;100309.41;4163466;28;20233;-75
2022/09/23 03:09:56;;;;;;;17.23;10.90;;;;;;;5.67;100.00;100314.69;4181253;28;21178;-76
2022/09/23 03:12:35;;;;;;;19.37;10.90;;;;;;;5.67;100.00;100319.94;4199768;28;20251;-77
2022/09/23 03:15:11;;;;;;;20.17;11.13;;;;;;;5.70;100.00;100322.34;4178760;28;20307;-78
2022/09/23 03:17:45;;;;;;;16.80;10.27;;;;;;;5.68;100.00;100318.97;4167101;28;20293;-77
2022/09/23 03:20:22;;;;;;;20.73;10.67;;;;;;;5.66;100.00;100314.78;4169077;28;20232;-77
2022/09/23 03:22:52;;;;;;;20.37;10.43;;;;;;;5.67;100.00;100322.59;4183053;28;20239;-75
2022/09/23 03:25:22;;;;;;;22.27;11.73;;;;;;;5.70;100.00;100318.88;4185843;28;21257;-75
2022/09/23 03:27:49;;;;;;;18.93;11.43;;;;;;;5.69;100.00;100310.13;4173021;28;21751;-78
2022/09/23 03:30:16;;;;;;;18.27;10.27;;;;;;;5.68;100.00;100310.22;4185822;28;21866;-78
2022/09/23 03:32:44;;;;;;;17.37;10.40;;;;;;;5.66;100.00;100309.50;4169403;28;20260;-81
2022/09/23 03:35:11;;;;;;;18.23;10.43;;;;;;;5.69;100.00;100312.75;4178533;28;20248;-77
2022/09/23 03:37:42;;;;;;;20.57;11.20;;;;;;;5.62;100.00;100314.19;4182748;28;20668;-78
2022/09/23 03:40:24;;;;;;;20.53;11.60;;;;;;;5.58;100.00;100314.53;4185026;28;20330;-77
2022/09/23 03:42:52;;;;;;;21.93;12.67;;;;;;;5.46;100.00;100306.56;4181217;28;20238;-77
2022/09/23 03:45:22;;;;;;;21.87;13.00;;;;;;;5.43;100.00;100308.59;4161103;28;20411;-77
2022/09/23 03:47:49;;;;;;;20.10;12.20;;;;;;;5.38;100.00;100300.19;4162809;28;20409;-76
2022/09/23 03:50:16;;;;;;;23.17;12.23;;;;;;;5.28;100.00;100294.75;4178289;28;20245;-79
2022/09/23 03:52:43;;;;;;;32.03;11.93;;;;;;;5.31;100.00;100301.59;4179235;28;20258;-77
2022/09/23 03:55:10;;;;;;;22.53;11.73;;;;;;;5.28;100.00;100300.88;4166298;28;25047;-79
2022/09/23 03:57:36;;;;;;;28.53;12.67;;;;;;;5.18;100.00;100307.78;4170126;28;20443;-76
2022/09/23 04:00:05;;;;;;;112.10;14.67;;;;;;;5.17;100.00;100307.91;4183183;28;21454;-76
2022/09/23 04:02:32;;;;;;;52.73;11.50;;;;;;;5.08;100.00;100312.91;4166392;28;20231;-75
2022/09/23 04:04:59;;;;;;;15.53;9.67;;;;;;;5.06;100.00;100304.28;4168842;28;20297;-75
2022/09/23 04:07:26;;;;;;;19.70;10.20;;;;;;;5.01;100.00;100308.19;4179240;28;21054;-77
2022/09/23 04:09:53;;;;;;;57.20;11.93;;;;;;;4.95;100.00;100306.84;4180234;28;20244;-75
2022/09/23 04:12:19;;;;;;;59.93;12.37;;;;;;;4.82;100.00;100304.28;4164702;28;22932;-77
2022/09/23 04:14:46;;;;;;;82.73;12.13;;;;;;;4.80;100.00;100305.31;4161503;28;21244;-79
2022/09/23 04:17:12;;;;;;;44.77;12.23;;;;;;;4.83;100.00;100313.00;4181462;28;20687;-76
2022/09/23 04:19:39;;;;;;;19.47;11.23;;;;;;;4.86;100.00;100307.50;4183041;28;20233;-76
2022/09/23 04:22:06;;;;;;;80.30;13.80;;;;;;;4.75;100.00;100308.31;4177397;28;20233;-78
2022/09/23 04:24:33;;;;;;;56.60;13.37;;;;;;;4.76;100.00;100306.50;4193074;28;20722;-78
2022/09/23 04:26:59;;;;;;;70.93;12.83;;;;;;;4.70;100.00;100307.78;4183270;28;20237;-77
2022/09/23 04:29:26;;;;;;;87.83;13.67;;;;;;;4.58;100.00;100309.50;4186104;28;20311;-77
2022/09/23 04:31:53;;;;;;;77.77;14.70;;;;;;;4.47;100.00;100312.03;4188946;28;20489;-78
2022/09/23 04:34:20;;;;;;;39.73;11.97;;;;;;;4.57;100.00;100318.38;4178745;28;20233;-77
2022/09/23 04:36:47;;;;;;;29.43;12.33;;;;;;;4.53;100.00;100314.25;4181284;28;21645;-78
2022/09/23 04:39:14;;;;;;;25.30;12.10;;;;;;;4.61;100.00;100318.97;4171122;28;20321;-80
2022/09/23 04:41:42;;;;;;;41.07;12.73;;;;;;;4.63;100.00;100322.34;4187180;28;20237;-81
2022/09/23 04:44:13;;;;;;;59.97;14.00;;;;;;;4.62;100.00;100315.41;4189884;28;21312;-77
2022/09/23 04:46:40;;;;;;;46.57;14.37;;;;;;;4.60;100.00;100312.88;4234139;28;20244;-79
2022/09/23 04:49:07;;;;;;;76.10;14.10;;;;;;;4.72;100.00;100315.59;4213711;28;20468;-79
2022/09/23 04:51:34;;;;;;;101.10;19.43;;;;;;;4.61;100.00;100306.66;4226965;28;20634;-80
2022/09/23 04:54:00;;;;;;;23.87;12.10;;;;;;;4.75;100.00;100310.06;4204252;28;20900;-78
2022/09/23 04:56:28;;;;;;;102.77;16.33;;;;;;;4.65;100.00;100310.75;4202873;28;22288;-78
2022/09/23 04:59:00;;;;;;;115.80;19.63;;;;;;;4.65;100.00;100305.47;4211617;28;21285;-75
2022/09/23 05:01:29;;;;;;;86.07;14.43;;;;;;;4.72;100.00;100312.94;4188160;28;21784;-75
2022/09/23 05:04:01;;;;;;;24.27;12.50;;;;;;;4.83;100.00;100310.38;4193966;28;20240;-76
2022/09/23 05:06:30;;;;;;;51.43;15.03;;;;;;;4.92;100.00;100312.34;4186196;28;21953;-76
2022/09/23 05:08:57;;;;;;;61.17;15.03;;;;;;;4.96;100.00;100312.94;4201072;28;20239;-73
2022/09/23 05:11:24;;;;;;;69.17;14.40;;;;;;;5.02;100.00;100309.88;4188313;28;20247;-76
2022/09/23 05:13:52;;;;;;;124.40;19.23;;;;;;;5.02;100.00;100308.06;4184992;28;20670;-74
2022/09/23 05:16:21;;;;;;;38.40;14.13;;;;;;;5.11;100.00;100305.72;4194717;28;20309;-73
2022/09/23 05:18:49;;;;;;;104.27;14.93;;;;;;;5.07;100.00;100308.56;4186175;28;20229;-73
2022/09/23 05:21:17;;;;;;;22.03;11.73;;;;;;;5.02;100.00;100302.81;4216706;28;20329;-75
2022/09/23 05:23:48;;;;;;;90.33;13.43;;;;;;;5.05;100.00;100310.47;4180480;28;20243;-67
2022/09/23 05:26:15;;;;;;;49.73;18.27;;;;;;;5.08;100.00;100317.34;4166753;28;21229;-70
2022/09/23 05:28:41;;;;;;;68.30;13.67;;;;;;;5.06;100.00;100312.19;4166746;28;20431;-68
2022/09/23 05:31:15;;;;;;;62.13;13.13;;;;;;;5.17;100.00;100308.72;4183875;28;20705;-68
2022/09/23 05:33:48;;;;;;;94.47;13.70;;;;;;;5.14;100.00;100308.13;4169825;28;20238;-69
2022/09/23 05:36:18;;;;;;;73.77;14.00;;;;;;;5.36;100.00;100310.88;4179189;28;20417;-67
2022/09/23 05:38:45;;;;;;;48.73;12.77;;;;;;;5.45;100.00;100318.06;4180046;28;20451;-67
2022/09/23 05:41:12;;;;;;;62.53;13.07;;;;;;;5.62;100.00;100315.97;4181228;28;20282;-69
2022/09/23 05:43:39;;;;;;;19.33;11.10;;;;;;;5.79;100.00;100306.78;4181667;28;20233;-66
2022/09/23 05:46:14;;;;;;;45.13;11.20;;;;;;;5.68;100.00;100326.06;4172446;28;20289;-69
2022/09/23 05:48:42;;;;;;;30.97;10.83;;;;;;;5.74;100.00;100325.63;4173997;28;20384;-66
2022/09/23 05:51:12;;;;;;;23.43;9.73;;;;;;;5.96;100.00;100326.63;4183561;28;20349;-69
2022/09/23 05:53:39;;;;;;;31.10;10.37;;;;;;;6.08;100.00;100323.88;4179643;28;20639;-70
2022/09/23 05:56:06;;;;;;;32.70;11.00;;;;;;;6.29;100.00;100331.09;4162143;28;20435;-69
2022/09/23 05:58:33;;;;;;;18.10;9.73;;;;;;;6.47;100.00;100334.09;4181454;28;20483;-70
2022/09/23 06:01:00;;;;;;;20.07;11.03;;;;;;;6.53;100.00;100338.88;4189776;28;20236;-69
2022/09/23 06:03:26;;;;;;;20.87;9.57;;;;;;;6.60;100.00;100334.81;4174418;28;23880;-69
2022/09/23 06:05:53;;;;;;;20.37;9.70;;;;;;;6.62;100.00;100334.69;4187781;28;20229;-66
2022/09/23 06:08:22;;;;;;;14.87;9.20;;;;;;;6.54;100.00;100335.31;4196814;28;22468;-70
2022/09/23 06:10:49;;;;;;;14.43;9.53;;;;;;;6.75;100.00;100330.94;4199947;28;20239;-68
2022/09/23 06:13:20;;;;;;;15.83;9.23;;;;;;;7.00;100.00;100338.69;4192678;28;20237;-71
2022/09/23 06:15:46;;;;;;;21.77;10.57;;;;;;;6.96;100.00;100335.47;4189126;28;20238;-71
2022/09/23 06:18:13;;;;;;;17.20;10.03;;;;;;;7.28;100.00;100334.63;4170968;28;21451;-75
2022/09/23 06:20:39;;;;;;;17.63;9.40;;;;;;;7.25;100.00;100333.09;4196207;28;21486;-71
2022/09/23 06:23:08;;;;;;;20.57;10.20;;;;;;;7.29;100.00;100341.63;4186335;28;20249;-73
2022/09/23 06:25:39;;;;;;;17.17;10.30;;;;;;;7.34;100.00;100334.16;4194764;28;20242;-72
2022/09/23 06:28:11;;;;;;;19.67;11.67;;;;;;;7.50;100.00;100336.38;4196939;28;20234;-73
2022/09/23 06:30:41;;;;;;;18.37;10.63;;;;;;;7.51;100.00;100341.50;4203299;28;21593;-72
2022/09/23 06:33:08;;;;;;;22.73;12.37;;;;;;;7.63;100.00;100339.66;4224399;28;23279;-71
2022/09/23 06:35:35;;;;;;;20.70;12.33;;;;;;;7.57;100.00;100332.25;4209070;28;20245;-73
2022/09/23 06:38:03;;;;;;;21.83;13.80;;;;;;;7.77;100.00;100339.34;4202314;28;21151;-73
2022/09/23 06:40:30;;;;;;;25.03;12.80;;;;;;;7.81;100.00;100340.75;4197317;28;20593;-67
2022/09/23 06:42:58;;;;;;;22.37;13.37;;;;;;;8.07;100.00;100335.06;4194273;28;22055;-69
2022/09/23 06:45:25;;;;;;;23.47;13.00;;;;;;;8.30;100.00;100340.19;4193919;28;20389;-69
2022/09/23 06:47:57;;;;;;;24.80;13.20;;;;;;;8.16;100.00;100336.09;4227907;28;20433;-72
2022/09/23 06:50:25;;;;;;;24.17;12.20;;;;;;;8.33;100.00;100338.09;4172579;28;20675;-69
2022/09/23 06:52:55;;;;;;;26.90;11.57;;;;;;;8.51;100.00;100338.34;4195874;28;20754;-70
2022/09/23 06:55:23;;;;;;;20.37;12.63;;;;;;;8.83;100.00;100346.16;4184146;28;21399;-68
2022/09/23 06:57:50;;;;;;;23.00;12.37;;;;;;;8.99;100.00;100339.47;4190163;28;20412;-69
2022/09/23 07:00:17;;;;;;;28.93;12.40;;;;;;;8.62;100.00;100345.38;4211836;28;20340;-73
2022/09/23 07:02:43;;;;;;;21.47;12.23;;;;;;;8.87;100.00;100347.56;4193464;28;20571;-73
2022/09/23 07:05:10;;;;;;;22.53;13.03;;;;;;;9.49;99.89;100348.16;4213317;28;20239;-74
2022/09/23 07:07:40;;;;;;;23.60;13.83;;;;;;;9.32;98.92;100345.34;4221380;28;22374;-69
2022/09/23 07:10:10;;;;;;;26.63;14.30;;;;;;;9.44;98.54;100350.41;4186705;28;20256;-69
2022/09/23 07:12:36;;;;;;;25.23;15.40;;;;;;;9.57;97.22;100355.44;4208138;28;20248;-68
2022/09/23 07:15:03;;;;;;;30.20;14.87;;;;;;;9.85;95.04;100355.56;4205540;28;20241;-70
2022/09/23 07:17:30;;;;;;;28.50;14.63;;;;;;;10.44;92.59;100354.47;4210736;28;20814;-70
2022/09/23 07:19:59;;;;;;;27.77;14.77;;;;;;;10.48;91.04;100366.47;4250136;28;20295;-69
2022/09/23 07:22:29;;;;;;;24.90;14.10;;;;;;;10.61;90.89;100362.66;4440972;28;20245;-69
2022/09/23 07:24:59;;;;;;;25.00;13.23;;;;;;;10.42;91.11;100360.88;4423875;28;20300;-70
2022/09/23 07:27:26;;;;;;;22.30;13.33;;;;;;;11.95;84.45;100363.69;4189605;28;20313;-70
2022/09/23 07:29:53;;;;;;;20.07;11.50;;;;;;;12.31;80.56;100367.06;4223814;28;20308;-70
2022/09/23 07:32:21;;;;;;;16.20;10.40;;;;;;;12.20;80.25;100364.69;4211185;28;23110;-71
2022/09/23 07:34:48;;;;;;;19.63;11.70;;;;;;;11.98;83.35;100361.50;4236322;28;20280;-73
2022/09/23 07:37:16;;;;;;;17.27;10.83;;;;;;;12.66;79.78;100360.72;4220463;28;21891;-72
2022/09/23 07:39:44;;;;;;;17.13;10.60;;;;;;;14.15;72.55;100373.34;4267124;28;20247;-73
2022/09/23 07:42:12;;;;;;;15.03;9.90;;;;;;;14.55;69.43;100374.28;4228111;28;20762;-74
2022/09/23 07:44:46;;;;;;;18.30;10.43;;;;;;;14.04;71.48;100373.69;4212857;28;25207;-76
2022/09/23 07:47:13;;;;;;;18.20;10.53;;;;;;;14.07;72.30;100370.66;4225826;28;20465;-74
2022/09/23 07:49:40;;;;;;;18.17;9.83;;;;;;;15.39;66.49;100371.84;4204507;28;20240;-73
2022/09/23 07:52:06;;;;;;;16.03;9.00;;;;;;;15.76;63.38;100378.34;4206573;28;20359;-71
2022/09/23 07:54:33;;;;;;;13.03;8.57;;;;;;;13.84;69.43;100365.19;4238787;28;20244;-69
2022/09/23 07:57:00;;;;;;;12.57;8.50;;;;;;;14.58;66.73;100373.94;4225820;28;21584;-68
2022/09/23 07:59:26;;;;;;;14.90;9.60;;;;;;;14.46;66.87;100365.41;4224745;28;20354;-70
2022/09/23 08:01:55;;;;;;;15.30;9.67;;;;;;;14.82;66.03;100372.16;4226097;28;20302;-70
2022/09/23 08:04:25;;;;;;;15.70;9.63;;;;;;;13.88;70.61;100351.31;4201802;28;20331;-68
2022/09/23 08:06:57;;;;;;;15.67;9.30;;;;;;;15.78;64.45;100370.91;4226750;28;21175;-67
2022/09/23 08:09:27;;;;;;;12.23;8.17;;;;;;;19.03;50.80;100388.88;4191819;28;20296;-69
2022/09/23 08:11:54;;;;;;;12.93;8.10;;;;;;;21.64;43.48;100395.69;4211787;28;20241;-69
2022/09/23 08:14:21;;;;;;;15.50;8.60;;;;;;;22.49;39.57;100398.72;4207142;28;21693;-67
2022/09/23 08:16:48;;;;;;;12.57;8.30;;;;;;;22.43;39.42;100409.63;4205900;28;20243;-67
2022/09/23 08:19:15;;;;;;;13.90;8.60;;;;;;;23.33;37.42;100409.03;4232403;28;20282;-72
2022/09/23 08:21:42;;;;;;;14.23;8.00;;;;;;;24.26;34.65;100413.06;4209707;28;20317;-65
2022/09/23 08:24:13;;;;;;;14.33;9.03;;;;;;;23.18;37.30;100398.59;4204953;28;20415;-67
2022/09/23 08:26:39;;;;;;;12.50;8.00;;;;;;;22.45;37.94;100391.25;4201517;28;20275;-69
2022/09/23 08:29:09;;;;;;;14.47;8.77;;;;;;;20.67;41.79;100376.75;4259468;28;20748;-71
2022/09/23 08:31:35;;;;;;;37.73;8.97;;;;;;;19.44;45.42;100362.88;4230327;28;20336;-70
2022/09/23 08:34:03;;;;;;;13.00;8.43;;;;;;;17.54;52.15;100345.16;4201569;28;22564;-69
2022/09/23 08:36:30;;;;;;;11.63;8.03;;;;;;;15.88;59.38;100331.25;4214366;28;20233;-74
2022/09/23 08:38:57;;;;;;;10.67;7.13;;;;;;;15.45;61.75;100328.22;4208413;28;20229;-69
2022/09/23 08:41:55;;;;;;;11.77;7.83;;;;;;;14.83;65.98;100322.94;4200893;28;20299;-69
2022/09/23 08:44:43;;;;;;;14.03;8.60;;;;;;;14.14;69.39;100307.44;4203084;28;21261;-71
2022/09/23 08:47:12;;;;;;;14.97;8.50;;;;;;;13.71;72.82;100309.53;4218658;28;20264;-71
2022/09/23 08:49:44;;;;;;;14.47;8.60;;;;;;;13.96;71.74;100309.50;4199167;28;20243;-71
2022/09/23 08:52:17;;;;;;;23.40;8.90;;;;;;;14.17;72.12;100299.06;4193885;28;20245;-72
2022/09/23 08:54:43;;;;;;;17.10;10.53;;;;;;;14.67;70.46;100308.59;4210308;28;20399;-71
2022/09/23 08:57:23;;;;;;;13.03;7.90;;;;;;;14.63;68.28;100312.63;4215644;28;20332;-70
2022/09/23 08:59:50;;;;;;;11.30;7.67;;;;;;;15.19;67.03;100313.34;4196399;28;21198;-71
2022/09/23 09:02:18;;;;;;;10.37;5.73;;;;;;;15.72;61.92;100316.13;4192992;28;20310;-72
2022/09/23 09:04:48;;;;;;;9.63;6.10;;;;;;;15.98;61.36;100313.03;4194065;28;23228;-70
2022/09/23 09:07:19;;;;;;;8.20;5.87;;;;;;;15.81;62.07;100306.16;4199365;28;20241;-72
2022/09/23 09:10:19;;;;;;;9.27;5.73;;;;;;;15.52;63.24;100305.06;4205813;28;20553;-71
2022/09/23 09:12:49;;;;;;;10.20;6.20;;;;;;;14.99;65.51;100298.75;4181831;28;23743;-72
2022/09/23 09:15:20;;;;;;;8.80;5.47;;;;;;;14.39;69.56;100302.00;4194092;28;20307;-72
2022/09/23 09:18:20;;;;;;;9.70;5.87;;;;;;;14.09;72.49;100291.06;4211621;28;20299;-72
2022/09/23 09:20:59;;;;;;;10.03;6.13;;;;;;;13.75;72.75;100285.97;4195124;28;20309;-70
2022/09/23 09:23:39;;;;;;;12.20;6.77;;;;;;;13.27;76.69;100283.09;4188546;28;21720;-70
2022/09/23 09:26:10;;;;;;;7.87;4.70;;;;;;;13.45;74.97;100280.28;4203462;28;20245;-71
2022/09/23 09:28:40;;;;;;;5.97;3.40;;;;;;;13.99;69.40;100283.22;4187032;28;20241;-71
2022/09/23 09:31:43;;;;;;;8.27;3.97;;;;;;;13.90;66.25;100281.56;4191659;28;22064;-71
2022/09/23 09:34:39;;;;;;;9.97;5.33;;;;;;;13.65;66.99;100284.31;4208049;28;20246;-70
2022/09/23 09:37:12;;;;;;;3.13;2.10;;;;;;;13.65;64.48;100283.44;4197564;28;20249;-71
2022/09/23 09:39:39;;;;;;;2.03;0.90;;;;;;;14.04;59.08;100282.72;4199327;28;21819;-71
2022/09/23 09:42:06;;;;;;;2.50;1.07;;;;;;;14.36;58.72;100289.81;4209681;28;20285;-73
2022/09/23 09:44:47;;;;;;;1.07;0.70;;;;;;;14.63;54.81;100290.38;4191588;28;20237;-71
2022/09/23 09:47:27;;;;;;;1.23;0.80;;;;;;;15.06;53.79;100291.66;4207029;28;20237;-71
2022/09/23 09:50:10;;;;;;;1.73;0.77;;;;;;;14.95;52.34;100292.06;4204863;28;22649;-70
2022/09/23 09:52:36;;;;;;;1.43;0.77;;;;;;;14.75;51.45;100287.16;4204723;28;20314;-72
2022/09/23 09:55:12;;;;;;;1.10;0.73;;;;;;;14.49;53.93;100281.22;4214152;28;21888;-71
2022/09/23 09:58:05;;;;;;;1.57;1.00;;;;;;;14.51;54.22;100277.34;4200510;28;20416;-71
2022/09/23 10:00:41;;;;;;;3.63;0.80;;;;;;;14.36;50.85;100277.25;4214553;28;20248;-73
2022/09/23 10:03:14;;;;;;;0.97;0.67;;;;;;;14.19;52.11;100278.34;4194000;28;20238;-73
2022/09/23 10:05:43;;;;;;;2.27;1.00;;;;;;;14.43;52.95;100276.56;4188563;28;20238;-72
2022/09/23 10:08:26;;;;;;;1.83;0.70;;;;;;;14.41;52.02;100273.22;4200852;28;20461;-74
2022/09/23 10:11:15;;;;;;;1.77;0.90;;;;;;;14.15;54.48;100255.59;4183324;28;21607;-71
2022/09/23 10:14:11;;;;;;;1.33;0.87;;;;;;;14.29;50.86;100262.91;4201799;28;21493;-72
2022/09/23 10:16:40;;;;;;;1.20;0.90;;;;;;;14.46;52.39;100258.31;4197723;28;20345;-73
2022/09/23 10:19:21;;;;;;;0.80;0.60;;;;;;;14.61;51.61;100261.13;4187257;28;20876;-72
2022/09/23 10:21:58;;;;;;;1.63;0.90;;;;;;;14.64;52.62;100258.09;4180696;28;22149;-72
2022/09/23 10:24:28;;;;;;;1.10;0.80;;;;;;;14.77;52.03;100261.03;4174121;28;20715;-72
2022/09/23 10:27:07;;;;;;;3.57;0.70;;;;;;;14.92;50.97;100253.06;4181792;28;20275;-72
2022/09/23 10:29:44;;;;;;;1.10;0.90;;;;;;;14.82;51.92;100246.25;4200171;28;20424;-71
2022/09/23 10:32:30;;;;;;;2.37;0.93;;;;;;;14.99;50.39;100258.53;4200936;28;20255;-71
2022/09/23 10:35:02;;;;;;;1.60;0.90;;;;;;;14.76;49.58;100256.66;4177538;28;22224;-73
2022/09/23 10:37:37;;;;;;;4.40;1.00;;;;;;;14.39;51.17;100240.44;4190811;28;20232;-73
2022/09/23 10:49:10;;;;;;;1.60;1.10;;;;;;;14.01;54.74;100235.72;4187231;28;20387;-73
2022/09/23 10:51:55;;;;;;;1.07;0.80;;;;;;;14.00;53.18;100239.44;4186494;28;20390;-72
2022/09/23 10:54:55;;;;;;;5.47;1.00;;;;;;;14.25;54.93;100242.00;4257213;28;20767;-71
2022/09/23 10:57:36;;;;;;;2.27;0.90;;;;;;;14.09;53.27;100237.53;4208325;28;20386;-73
2022/09/23 11:00:22;;;;;;;1.60;1.00;;;;;;;13.92;54.86;100240.28;4218373;28;20226;-74
2022/09/23 11:03:20;;;;;;;1.37;0.97;;;;;;;13.79;56.17;100223.94;4194277;28;21784;-72
2022/09/23 11:06:04;;;;;;;2.70;1.63;;;;;;;14.06;56.42;100230.69;4228163;28;26325;-71
2022/09/23 11:08:39;;;;;;;1.30;1.00;;;;;;;14.25;53.77;100233.97;4220141;28;21706;-72
2022/09/23 11:11:38;;;;;;;1.57;1.00;;;;;;;14.47;52.72;100232.34;4275939;28;20240;-72
2022/09/23 11:14:21;;;;;;;1.87;1.07;;;;;;;14.51;50.58;100229.16;4210684;28;20241;-74
2022/09/23 11:16:56;;;;;;;3.00;0.93;;;;;;;14.43;52.94;100239.09;4193081;28;20253;-71
2022/09/23 11:19:55;;;;;;;2.37;1.03;;;;;;;14.38;49.07;100234.25;4204078;28;20232;-72
2022/09/23 11:22:53;;;;;;;1.83;0.90;;;;;;;14.05;50.08;100231.72;4180319;28;20293;-72
2022/09/23 11:25:42;;;;;;;1.33;1.00;;;;;;;13.86;51.72;100232.94;4229325;28;21628;-72
2022/09/23 11:28:50;;;;;;;2.40;0.93;;;;;;;13.94;52.89;100224.06;4219320;28;21137;-72
2022/09/23 11:31:36;;;;;;;3.37;1.27;;;;;;;14.11;52.26;100222.16;4195219;28;21426;-73
2022/09/23 11:34:11;;;;;;;2.03;1.23;;;;;;;14.18;52.48;100217.78;4213203;28;20242;-73
2022/09/23 11:36:42;;;;;;;1.37;0.93;;;;;;;14.45;51.95;100215.66;4211753;28;20271;-69
2022/09/23 11:39:18;;;;;;;2.40;0.80;;;;;;;14.69;51.47;100215.53;4215993;28;20326;-76
2022/09/23 11:41:45;;;;;;;2.20;0.90;;;;;;;14.97;49.63;100212.31;4203352;28;22168;-75
2022/09/23 11:44:21;;;;;;;1.43;0.90;;;;;;;15.02;47.96;100214.47;4217048;28;21715;-73
2022/09/23 11:47:18;;;;;;;1.10;0.67;;;;;;;15.11;46.57;100211.53;4176690;28;20690;-73
2022/09/23 11:49:56;;;;;;;1.90;0.90;;;;;;;15.18;48.03;100215.16;4255744;28;20355;-72
2022/09/23 11:52:23;;;;;;;2.50;1.10;;;;;;;15.32;46.09;100218.09;4246213;28;20266;-74